Weather History for Las Cruces, NM

Change the Weather History Date:

Saturday, March 24, 2012

  Actual Average Record
Temperature  
Mean Temperature 62 °F -  
Max Temperature 82 °F 68 °F 82 °F (1998)
Min Temperature 42 °F 42 °F 28 °F (2013)
Degree Days  
Heating Degree Days 3    
Growing Degree Days 12 (Base 50)    
Moisture  
Dew Point 20 °F    
Average Humidity 22    
Maximum Humidity 39    
Minimum Humidity 7    
Precipitation  
Precipitation 0.00 in - - ()
Sea Level Pressure  
Sea Level Pressure 30.09 in    
Wind  
Wind Speed 6 mph (West)    
Max Wind Speed 15 mph    
Max Gust Speed 24 mph    
Visibility 10 miles    
Events      
Averages and records for this station are not official NWS values.
T = Trace of Precipitation, MM = Missing Value Source: NWS Daily Summary

Daily Weather History Graph

Daily Weather History Graph

Search for Another Location

Airport:

Trip Planner

Search our weather history database for the weather conditions in past years. The results will help you decide how hot, cold, wet, or windy it might be!

Date:

Astronomy

Mar. 24, 2012 Rise Set
Actual Time 7:05 AM MDT 7:22 PM MDT
Civil Twilight 6:41 AM MDT 7:46 PM MDT
Nautical Twilight 6:12 AM MDT 8:15 PM MDT
Astronomical Twilight 5:43 AM MDT 8:44 PM MDT
Moon 7:55 AM MDT (3/24) 9:32 PM MDT (3/24)
Length of Visible Light 13h 05m
Length of Day
12h 16m
Waxing Crescent, 4% of the Moon is Illuminated
Mar 24
Waxing Crescent
Mar 30
First Quarter
Apr 6
Full
Apr 13
Last Quarter
Apr 21
New

Hourly Weather History & Observations

Time (MDT) Temp. Windchill Dew Point Humidity Pressure Visibility Wind Dir Wind Speed Gust Speed Precip Events Conditions
12:15 AM 53.6 °F - 19.4 °F 26% 30.08 in 10.0 mi NW 8.1 mph - N/A   Clear
12:35 AM 51.8 °F - 19.4 °F 28% 30.08 in 10.0 mi NW 6.9 mph - N/A   Clear
12:55 AM 51.8 °F - 19.4 °F 28% 30.08 in 10.0 mi NW 8.1 mph - N/A   Clear
1:15 AM 51.8 °F - 19.4 °F 28% 30.08 in 10.0 mi NW 9.2 mph - N/A   Clear
1:35 AM 50.0 °F - 21.2 °F 32% 30.08 in 10.0 mi NW 8.1 mph - N/A   Clear
1:55 AM 50.0 °F - 21.2 °F 32% 30.08 in 10.0 mi NW 8.1 mph - N/A   Clear
2:15 AM 50.0 °F - 21.2 °F 32% 30.08 in 10.0 mi NW 6.9 mph - N/A   Clear
2:35 AM 53.6 °F - 21.2 °F 28% 30.08 in 10.0 mi North 4.6 mph - N/A   Clear
2:55 AM 51.8 °F - 21.2 °F 30% 30.08 in 10.0 mi Calm Calm - N/A   Clear
3:15 AM 50.0 °F - 21.2 °F 32% 30.07 in 10.0 mi Calm Calm - N/A   Clear
3:35 AM 46.4 °F - 21.2 °F 37% 30.07 in 10.0 mi Calm Calm - N/A   Clear
3:55 AM 46.4 °F - 21.2 °F 37% 30.07 in 10.0 mi Calm Calm - N/A   Clear
4:15 AM 46.4 °F - 19.4 °F 34% 30.07 in 10.0 mi Calm Calm - N/A   Clear
4:35 AM 46.4 °F 45.2 °F 21.2 °F 37% 30.07 in 10.0 mi WNW 3.5 mph - N/A   Clear
4:55 AM 44.6 °F 43.1 °F 19.4 °F 37% 30.07 in 10.0 mi WNW 3.5 mph - N/A   Clear
5:15 AM 46.4 °F 45.2 °F 21.2 °F 37% 30.08 in 10.0 mi NW 3.5 mph - N/A   Clear
5:35 AM 48.2 °F - 21.2 °F 34% 30.08 in 10.0 mi Calm Calm - N/A   Clear
5:55 AM 44.6 °F 43.1 °F 19.4 °F 37% 30.08 in 10.0 mi NNW 3.5 mph - N/A   Clear
6:15 AM 44.6 °F 43.1 °F 19.4 °F 37% 30.09 in 10.0 mi NW 3.5 mph - N/A   Clear
6:35 AM 48.2 °F - 21.2 °F 34% 30.09 in 10.0 mi NNW 3.5 mph - N/A   Clear
6:55 AM 46.4 °F 44.3 °F 21.2 °F 37% 30.10 in 10.0 mi NW 4.6 mph - N/A   Clear
7:15 AM 42.8 °F 38.6 °F 19.4 °F 39% 30.11 in 10.0 mi NW 6.9 mph - N/A   Clear
7:35 AM 46.4 °F 42.4 °F 21.2 °F 37% 30.11 in 10.0 mi NW 8.1 mph - N/A   Clear
7:55 AM 53.6 °F - 23.0 °F 30% 30.12 in 10.0 mi NW 5.8 mph - N/A   Clear
8:15 AM 55.4 °F - 24.8 °F 31% 30.12 in 10.0 mi WNW 4.6 mph - N/A   Clear
8:35 AM 60.8 °F - 24.8 °F 25% 30.13 in 10.0 mi Calm Calm - N/A   Clear
8:55 AM 62.6 °F - 24.8 °F 24% 30.13 in 10.0 mi NW 3.5 mph - N/A   Clear
9:15 AM 64.4 °F - 23.0 °F 21% 30.14 in 10.0 mi Calm Calm - N/A   Clear
9:35 AM 64.4 °F - 24.8 °F 22% 30.14 in 10.0 mi Calm Calm - N/A   Clear
9:55 AM 64.4 °F - 24.8 °F 22% 30.15 in 10.0 mi Calm Calm - N/A   Clear
10:15 AM 68.0 °F - 26.6 °F 21% 30.15 in 10.0 mi East 3.5 mph - N/A   Clear
10:35 AM 68.0 °F - 26.6 °F 21% 30.15 in 10.0 mi ENE 5.8 mph - N/A   Clear
10:55 AM 69.8 °F - 24.8 °F 18% 30.15 in 10.0 mi ENE 5.8 mph - N/A   Clear
11:15 AM 69.8 °F - 24.8 °F 18% 30.14 in 10.0 mi ENE 4.6 mph - N/A   Clear
11:35 AM 71.6 °F - 24.8 °F 17% 30.14 in 10.0 mi East 4.6 mph - N/A   Clear
11:55 AM 73.4 °F - 23.0 °F 15% 30.13 in 10.0 mi Calm Calm - N/A   Clear
12:15 PM 77.0 °F - 23.0 °F 13% 30.12 in 10.0 mi South 4.6 mph - N/A   Clear
12:35 PM 78.8 °F - 21.2 °F 12% 30.11 in 10.0 mi South 6.9 mph - N/A   Clear
12:55 PM 78.8 °F - 17.6 °F 10% 30.11 in 10.0 mi SW 11.5 mph - N/A   Clear
1:15 PM 78.8 °F - 19.4 °F 11% 30.10 in 10.0 mi South 6.9 mph - N/A   Clear
1:35 PM 80.6 °F - 19.4 °F 10% 30.09 in 10.0 mi WSW 12.7 mph 16.1 mph N/A   Clear
1:55 PM 80.6 °F - 17.6 °F 10% 30.08 in 10.0 mi WSW 9.2 mph 18.4 mph N/A   Clear
2:15 PM 80.6 °F - 14.0 °F 8% 30.08 in 10.0 mi SW 10.4 mph 17.3 mph N/A   Clear
2:35 PM 82.4 °F - 17.6 °F 9% 30.07 in 10.0 mi WSW 15.0 mph 24.2 mph N/A   Clear
2:55 PM 82.4 °F - 14.0 °F 8% 30.06 in 10.0 mi SSW 5.8 mph 18.4 mph N/A   Clear
3:15 PM 80.6 °F - 14.0 °F 8% 30.06 in 10.0 mi SW 15.0 mph - N/A   Clear
3:35 PM 82.4 °F - 14.0 °F 8% 30.05 in 10.0 mi West 12.7 mph 19.6 mph N/A   Clear
3:55 PM 82.4 °F - 14.0 °F 8% 30.05 in 10.0 mi WSW 6.9 mph - N/A   Clear
4:15 PM 82.4 °F - 12.2 °F 7% 30.04 in 10.0 mi SSW 8.1 mph - N/A   Clear
4:35 PM 82.4 °F - 14.0 °F 8% 30.04 in 10.0 mi SW 6.9 mph - N/A   Clear
4:55 PM 82.4 °F - 14.0 °F 8% 30.03 in 10.0 mi SSW 4.6 mph 16.1 mph N/A   Clear
5:15 PM 82.4 °F - 12.2 °F 7% 30.03 in 10.0 mi SW 9.2 mph 16.1 mph N/A   Clear
5:35 PM 82.4 °F - 14.0 °F 8% 30.03 in 10.0 mi WSW 8.1 mph - N/A   Clear
5:55 PM 80.6 °F - 14.0 °F 8% 30.03 in 10.0 mi WSW 6.9 mph - N/A   Clear
6:15 PM 80.6 °F - 14.0 °F 8% 30.03 in 10.0 mi SW 6.9 mph - N/A   Clear
6:35 PM 80.6 °F - 14.0 °F 8% 30.03 in 10.0 mi West 4.6 mph - N/A   Clear
6:55 PM 78.8 °F - 15.8 °F 9% 30.03 in 10.0 mi Calm Calm - N/A   Clear
7:15 PM 75.2 °F - 14.0 °F 10% 30.02 in 10.0 mi Calm Calm - N/A   Clear
7:35 PM 71.6 °F - 14.0 °F 11% 30.03 in 10.0 mi Calm Calm - N/A   Clear
7:55 PM 68.0 °F - 14.0 °F 12% 30.03 in 10.0 mi Calm Calm - N/A   Clear
8:15 PM 68.0 °F - 14.0 °F 12% 30.03 in 10.0 mi Calm Calm - N/A   Clear
8:35 PM 62.6 °F - 12.2 °F 14% 30.04 in 10.0 mi Calm Calm - N/A   Clear
8:55 PM 59.0 °F - 10.4 °F 15% 30.04 in 10.0 mi Calm Calm - N/A   Clear
9:15 PM 60.8 °F - 12.2 °F 15% 30.05 in 10.0 mi Calm Calm - N/A   Clear
9:35 PM 57.2 °F - 12.2 °F 17% 30.05 in 10.0 mi Calm Calm - N/A   Clear
9:55 PM 55.4 °F - 12.2 °F 18% 30.05 in 10.0 mi Calm Calm - N/A   Clear
10:15 PM 57.2 °F - 12.2 °F 17% 30.06 in 10.0 mi NW 3.5 mph - N/A   Clear
10:35 PM 55.4 °F - 12.2 °F 18% 30.06 in 10.0 mi Calm Calm - N/A   Clear
10:55 PM 57.2 °F - 14.0 °F 18% 30.06 in 10.0 mi Calm Calm - N/A   Clear
11:15 PM 55.4 °F - 14.0 °F 20% 30.07 in 10.0 mi East 3.5 mph - N/A   Clear
11:35 PM 53.6 °F - 12.2 °F 19% 30.07 in 10.0 mi Calm Calm - N/A   Clear
11:55 PM 51.8 °F - 12.2 °F 21% 30.07 in 10.0 mi Calm Calm - N/A   Clear